createdAt,value
2017-08-02T00:03:38.265Z,20.70
2017-08-02T00:08:24.913Z,20.60
2017-08-02T00:13:12.384Z,20.50
2017-08-02T00:17:59.066Z,20.40
2017-08-02T00:22:45.689Z,20.50
2017-08-02T00:27:32.336Z,20.50
2017-08-02T00:32:19.013Z,20.40
2017-08-02T00:37:05.736Z,20.40
2017-08-02T00:41:52.393Z,20.40
2017-08-02T00:46:39.196Z,20.40
2017-08-02T00:51:26.648Z,20.40
2017-08-02T00:56:13.332Z,20.30
2017-08-02T01:00:59.973Z,20.40
2017-08-02T01:05:47.360Z,20.40
2017-08-02T01:10:34.038Z,20.40
2017-08-02T01:15:21.376Z,20.40
2017-08-02T01:20:08.756Z,20.30
2017-08-02T01:24:55.370Z,20.20
2017-08-02T01:29:42.021Z,20.30
2017-08-02T01:34:28.685Z,20.40
2017-08-02T01:39:15.321Z,20.40
2017-08-02T01:44:01.985Z,20.40
2017-08-02T01:48:48.581Z,20.40
2017-08-02T01:53:35.200Z,20.60
2017-08-02T01:58:21.821Z,20.50
2017-08-02T02:03:08.452Z,20.50
2017-08-02T02:07:55.077Z,20.50
2017-08-02T02:12:41.713Z,20.60
2017-08-02T02:17:28.312Z,20.50
2017-08-02T02:22:14.945Z,20.70
2017-08-02T02:27:01.658Z,20.60
2017-08-02T02:31:48.335Z,20.60
2017-08-02T02:36:35.319Z,20.60
2017-08-02T02:41:21.967Z,20.70
2017-08-02T02:46:09.434Z,20.60
2017-08-02T02:50:56.118Z,20.60
2017-08-02T02:55:43.506Z,20.60
2017-08-02T03:00:30.117Z,20.60
2017-08-02T03:05:16.807Z,20.60
2017-08-02T03:10:04.165Z,20.60
2017-08-02T03:14:50.777Z,20.60
2017-08-02T03:19:37.405Z,20.60
2017-08-02T03:24:24.040Z,20.60
2017-08-02T03:29:10.666Z,20.50
2017-08-02T03:33:57.308Z,20.40
2017-08-02T03:38:43.938Z,20.40
2017-08-02T03:43:30.580Z,20.30
2017-08-02T03:48:17.971Z,20.20
2017-08-02T03:53:04.737Z,20.20
2017-08-02T03:57:51.667Z,20.10
2017-08-02T04:02:39.246Z,19.80
2017-08-02T04:07:25.861Z,19.80
2017-08-02T04:12:12.499Z,19.60
2017-08-02T04:16:59.164Z,19.60
2017-08-02T04:21:46.542Z,19.40
2017-08-02T04:26:33.209Z,19.40
2017-08-02T04:31:19.820Z,19.40
2017-08-02T04:36:06.425Z,19.40
2017-08-02T04:40:53.130Z,19.40
2017-08-02T04:45:39.830Z,19.40
2017-08-02T04:50:26.536Z,19.10
2017-08-02T04:55:13.920Z,18.90
2017-08-02T05:00:00.668Z,18.90
2017-08-02T05:04:47.314Z,19.10
2017-08-02T05:09:34.691Z,19.20
2017-08-02T05:14:21.323Z,19.20
2017-08-02T05:19:07.972Z,19.20
2017-08-02T05:23:54.614Z,19.20
2017-08-02T05:28:42.003Z,19.10
2017-08-02T05:33:28.691Z,19.10
2017-08-02T05:38:15.315Z,19.10
2017-08-02T05:43:02.031Z,18.90
2017-08-02T05:47:48.750Z,18.80
2017-08-02T05:52:35.375Z,18.80
2017-08-02T05:57:22.274Z,19.00
2017-08-02T06:02:09.619Z,19.40
2017-08-02T06:06:56.984Z,19.50
2017-08-02T06:11:43.597Z,19.50
2017-08-02T06:16:30.287Z,19.60
2017-08-02T06:21:17.690Z,20.00
2017-08-02T06:26:04.339Z,20.00
2017-08-02T06:30:50.972Z,20.40
2017-08-02T06:35:38.357Z,21.10
2017-08-02T06:40:24.987Z,21.10
2017-08-02T06:45:18.758Z,21.30
2017-08-02T06:50:05.395Z,21.50
2017-08-02T06:54:52.002Z,21.50
2017-08-02T06:59:38.624Z,21.50
2017-08-02T07:04:25.268Z,21.60
2017-08-02T07:09:11.882Z,21.70
2017-08-02T07:13:58.514Z,21.70
2017-08-02T07:18:45.162Z,21.60
2017-08-02T07:23:32.528Z,22.40
2017-08-02T07:28:19.177Z,22.30
2017-08-02T07:33:05.816Z,22.60
2017-08-02T07:37:52.435Z,22.70
2017-08-02T07:42:39.193Z,23.00
2017-08-02T07:47:25.833Z,23.30
2017-08-02T07:52:12.523Z,23.80
2017-08-02T07:56:59.208Z,24.20
2017-08-02T08:01:45.825Z,24.40
2017-08-02T08:06:32.460Z,24.40
2017-08-02T08:11:19.088Z,25.00
2017-08-02T08:16:05.696Z,25.40
2017-08-02T08:20:52.337Z,25.80
2017-08-02T08:25:39.687Z,26.30
2017-08-02T08:30:27.041Z,26.80
2017-08-02T08:35:13.851Z,26.70
2017-08-02T08:40:00.534Z,27.40
2017-08-02T08:44:47.216Z,27.60
2017-08-02T08:49:33.869Z,27.90
2017-08-02T08:54:20.494Z,28.30
2017-08-02T08:59:07.177Z,28.60
2017-08-02T09:03:53.793Z,28.70
2017-08-02T09:08:40.450Z,29.20
2017-08-02T09:13:27.112Z,29.50
2017-08-02T09:18:14.484Z,30.40
2017-08-02T09:23:01.150Z,30.30
2017-08-02T09:27:48.546Z,30.50
2017-08-02T09:32:35.185Z,30.50
2017-08-02T09:37:21.850Z,30.90
2017-08-02T09:42:08.450Z,30.80
2017-08-02T09:46:55.828Z,30.30
2017-08-02T09:51:42.505Z,30.20
2017-08-02T09:56:29.149Z,30.20
2017-08-02T10:01:15.806Z,29.60
2017-08-02T10:06:02.471Z,28.70
2017-08-02T10:10:49.178Z,28.50
2017-08-02T10:15:36.110Z,28.30
2017-08-02T10:20:22.751Z,28.10
2017-08-02T10:25:10.139Z,30.50
2017-08-02T10:29:56.762Z,30.50
2017-08-02T10:34:43.403Z,31.40
2017-08-02T10:39:30.084Z,31.50
2017-08-02T10:44:16.727Z,30.90
2017-08-02T10:49:03.370Z,31.00
2017-08-02T10:53:50.011Z,30.60
2017-08-02T10:58:36.651Z,29.90
2017-08-02T11:03:23.341Z,29.20
2017-08-02T11:08:10.758Z,29.30
2017-08-02T11:12:57.464Z,29.30
2017-08-02T11:17:44.145Z,30.90
2017-08-02T11:22:30.783Z,31.00
2017-08-02T11:27:17.420Z,30.20
2017-08-02T11:32:04.085Z,30.60
2017-08-02T11:36:50.856Z,31.20
2017-08-02T11:41:37.484Z,31.90
2017-08-02T11:46:24.214Z,31.80
2017-08-02T11:51:10.865Z,31.90
2017-08-02T11:55:57.504Z,31.50
2017-08-02T12:00:44.878Z,32.30
2017-08-02T12:05:31.496Z,32.20
2017-08-02T12:10:18.177Z,32.60
2017-08-02T12:15:05.569Z,32.70
2017-08-02T12:19:52.370Z,32.60
2017-08-02T12:24:39.075Z,33.10
2017-08-02T12:29:25.801Z,32.90
2017-08-02T12:34:12.424Z,32.50
2017-08-02T12:38:59.307Z,32.00
2017-08-02T12:43:46.026Z,32.70
2017-08-02T12:48:32.645Z,32.60
2017-08-02T12:53:19.284Z,31.90
2017-08-02T12:58:06.659Z,30.60
2017-08-02T13:02:53.358Z,30.60
2017-08-02T13:07:39.988Z,30.20
2017-08-02T13:12:26.637Z,29.90
2017-08-02T13:17:13.311Z,29.80
2017-08-02T13:21:59.954Z,30.10
2017-08-02T13:26:46.614Z,30.30
2017-08-02T13:31:33.233Z,30.30
2017-08-02T13:36:19.903Z,30.30
2017-08-02T13:41:06.522Z,30.10
2017-08-02T13:45:53.164Z,30.10
2017-08-02T13:50:39.819Z,30.00
2017-08-02T13:55:26.556Z,30.10
2017-08-02T14:00:13.310Z,30.40
2017-08-02T14:05:00.036Z,30.70
2017-08-02T14:09:46.726Z,30.80
2017-08-02T14:14:33.275Z,30.70
2017-08-02T14:19:19.890Z,30.50
2017-08-02T14:24:07.244Z,30.40
2017-08-02T14:28:53.874Z,30.30
2017-08-02T14:33:40.582Z,30.40
2017-08-02T14:38:27.251Z,30.40
2017-08-02T14:43:13.950Z,30.20
2017-08-02T14:48:00.574Z,30.20
2017-08-02T14:52:47.188Z,30.20
2017-08-02T14:57:33.831Z,30.10
2017-08-02T15:02:20.678Z,30.30
2017-08-02T15:07:08.074Z,30.40
2017-08-02T15:11:54.718Z,30.30
2017-08-02T15:16:42.131Z,30.30
2017-08-02T15:21:28.766Z,30.30
2017-08-02T15:26:15.395Z,30.30
2017-08-02T15:31:02.018Z,30.30
2017-08-02T15:35:50.231Z,30.20
2017-08-02T15:40:36.934Z,30.20
2017-08-02T15:45:23.590Z,30.20
2017-08-02T15:50:10.421Z,30.20
2017-08-02T15:54:57.056Z,30.20
2017-08-02T15:59:43.678Z,30.20
2017-08-02T16:04:30.606Z,30.10
2017-08-02T16:09:17.247Z,30.20
2017-08-02T16:14:03.841Z,30.10
2017-08-02T16:18:50.474Z,30.00
2017-08-02T16:23:37.106Z,29.90
2017-08-02T16:28:23.879Z,29.80
2017-08-02T16:33:10.552Z,29.80
2017-08-02T16:37:57.936Z,29.80
2017-08-02T16:42:44.563Z,29.80
2017-08-02T16:47:31.211Z,29.80
2017-08-02T16:52:17.857Z,29.70
2017-08-02T16:57:04.545Z,29.60
2017-08-02T17:01:51.288Z,29.20
2017-08-02T17:06:38.020Z,29.00
2017-08-02T17:11:29.625Z,28.40
2017-08-02T17:16:16.283Z,28.30
2017-08-02T17:21:03.733Z,28.20
2017-08-02T17:25:50.351Z,28.20
2017-08-02T17:30:37.015Z,28.30
2017-08-02T17:35:23.653Z,28.30
2017-08-02T17:40:10.380Z,28.20
2017-08-02T17:44:57.034Z,28.10
2017-08-02T17:49:43.745Z,27.80
2017-08-02T17:54:31.214Z,27.40
2017-08-02T17:59:17.857Z,27.40
2017-08-02T18:04:04.514Z,27.40
2017-08-02T18:08:51.922Z,26.90
2017-08-02T18:13:38.546Z,26.80
2017-08-02T18:18:25.237Z,26.60
2017-08-02T18:23:11.983Z,26.50
2017-08-02T18:27:58.945Z,26.40
2017-08-02T18:32:46.372Z,26.20
2017-08-02T18:37:33.855Z,26.10
2017-08-02T18:42:20.541Z,26.00
2017-08-02T18:47:08.054Z,25.70
2017-08-02T18:51:55.031Z,25.60
2017-08-02T18:56:41.660Z,25.60
2017-08-02T19:01:28.368Z,25.40
2017-08-02T19:06:15.952Z,25.20
2017-08-02T19:11:02.614Z,25.10
2017-08-02T19:15:49.289Z,25.00
2017-08-02T19:20:36.006Z,24.80
2017-08-02T19:25:22.638Z,24.60
2017-08-02T19:30:09.352Z,24.40
2017-08-02T19:34:56.028Z,24.40
2017-08-02T19:39:43.410Z,24.30
2017-08-02T19:44:30.089Z,24.30
2017-08-02T19:49:17.557Z,24.30
2017-08-02T19:54:04.315Z,24.20
2017-08-02T19:58:51.027Z,24.20
2017-08-02T20:03:37.726Z,24.00
2017-08-02T20:08:24.364Z,23.90
2017-08-02T20:13:11.018Z,23.80
2017-08-02T20:17:57.665Z,23.60
2017-08-02T20:22:45.039Z,23.40
2017-08-02T20:27:31.684Z,23.30
2017-08-02T20:32:18.316Z,23.20
2017-08-02T20:37:04.962Z,23.20
2017-08-02T20:41:52.468Z,23.00
2017-08-02T20:46:39.146Z,22.90
2017-08-02T20:51:25.788Z,22.90
2017-08-02T20:56:12.547Z,22.70
2017-08-02T21:00:59.257Z,22.70
2017-08-02T21:05:45.917Z,22.50
2017-08-02T21:10:32.618Z,22.50
2017-08-02T21:15:19.967Z,22.30
2017-08-02T21:20:07.354Z,22.20
2017-08-02T21:24:53.990Z,22.20
2017-08-02T21:29:40.621Z,22.10
2017-08-02T21:34:27.325Z,22.10
2017-08-02T21:39:14.020Z,21.90
2017-08-02T21:44:00.795Z,21.90
2017-08-02T21:48:47.451Z,21.70
2017-08-02T21:53:34.156Z,21.50
2017-08-02T21:58:21.543Z,21.30
2017-08-02T22:03:08.196Z,21.30
2017-08-02T22:07:54.844Z,21.30
2017-08-02T22:12:41.480Z,21.20
2017-08-02T22:17:28.067Z,21.00
2017-08-02T22:22:15.459Z,21.00
2017-08-02T22:27:02.125Z,21.00
2017-08-02T22:31:49.468Z,20.80
2017-08-02T22:36:36.858Z,20.60
2017-08-02T22:41:24.269Z,20.40
2017-08-02T22:46:11.065Z,20.40
2017-08-02T22:50:58.477Z,20.30
2017-08-02T22:55:45.106Z,20.30
2017-08-02T23:00:32.160Z,20.20
2017-08-02T23:05:18.887Z,20.20
2017-08-02T23:10:05.775Z,20.20
2017-08-02T23:14:52.448Z,20.20
2017-08-02T23:19:39.167Z,20.20
2017-08-02T23:24:26.217Z,20.20
2017-08-02T23:29:12.996Z,20.10
2017-08-02T23:34:00.372Z,20.20
2017-08-02T23:38:47.111Z,20.20
2017-08-02T23:43:33.722Z,20.10
2017-08-02T23:48:20.363Z,20.10
2017-08-02T23:53:06.991Z,20.10
2017-08-02T23:57:53.588Z,20.00
